Pine Level, North Carolina
Current Conditions -  °F | °C
As of 10:35 AM on Monday 22 Dec 2014 (Local Time) from KJNX Reporting Station
Haze Haze  
Wind Chill: 35°   Ceiling: 600
Heat Index: 41°   Visibility: 5mi
Dew Point: 39°   Wind: 9mph
Humidity: 93%   Direction: 20°NNE
Pressure: 30.13"   Gusts: NA
Location:  35.51°N, 78.24°W
Report Text: KJNX 221535Z AUTO 02008KT 5SM BR OVC006 05/04 A3013 RMK AO2
Loading
Personal Weather Stations






























Interactive Weather Map New forecast layout! Learn more

10-Day Weather Forecast

Advertisements
Track Severe Weather on mobile